Time;durP1;ratioP1;P1;durP2;ratioP2;P2;SDS_P1;SDS_P2;PMS_P1;PMS_P2;Temp;Humidity;BMP_temperature;BMP_pressure;BME280_temperature;BME280_humidity;BME280_pressure;Samples;Min_cycle;Max_cycle;Signal;HPM_P1;HPM_P2
2024/01/20 00:00:35;;;;;;;8.93;6.00;;;-4.50;99.90;;;;;;5068998;28;20251;-80
2024/01/20 00:03:02;;;;;;;12.23;7.63;;;-4.50;99.90;;;;;;5067114;28;20243;-80
2024/01/20 00:05:29;;;;;;;11.05;6.22;;;-4.40;99.90;;;;;;5063232;28;20201;-80
2024/01/20 00:07:56;;;;;;;10.77;7.00;;;-4.40;99.90;;;;;;5068954;28;20193;-82
2024/01/20 00:10:23;;;;;;;12.38;6.93;;;-4.40;99.90;;;;;;5055716;28;20201;-82
2024/01/20 00:12:50;;;;;;;10.85;6.90;;;-4.30;99.90;;;;;;5061459;28;20270;-79
2024/01/20 00:15:18;;;;;;;9.55;6.10;;;-4.30;99.90;;;;;;5052614;28;20312;-79
2024/01/20 00:17:46;;;;;;;10.80;7.43;;;-4.30;99.90;;;;;;5059900;28;20652;-82
2024/01/20 00:20:13;;;;;;;9.60;5.95;;;-4.30;99.90;;;;;;5057313;28;20204;-79
2024/01/20 00:22:40;;;;;;;7.82;5.82;;;-4.40;99.90;;;;;;5068299;28;20197;-80
2024/01/20 00:25:08;;;;;;;9.88;7.15;;;-4.30;99.90;;;;;;5062875;28;20204;-81
2024/01/20 00:27:35;;;;;;;12.73;5.93;;;-4.30;99.90;;;;;;5063520;28;20253;-80
2024/01/20 00:30:03;;;;;;;9.52;6.50;;;-4.20;99.90;;;;;;5066785;28;20265;-82
2024/01/20 00:32:32;;;;;;;7.40;5.45;;;-4.30;99.90;;;;;;5066804;28;20198;-79
2024/01/20 00:34:59;;;;;;;8.88;5.15;;;-4.30;99.90;;;;;;5075711;28;20228;-78
2024/01/20 00:37:26;;;;;;;9.85;6.20;;;-4.30;99.90;;;;;;5065894;28;20290;-77
2024/01/20 00:39:53;;;;;;;11.20;6.95;;;-4.40;99.90;;;;;;5065746;28;20242;-78
2024/01/20 00:42:19;;;;;;;8.57;5.60;;;-4.30;99.90;;;;;;5073473;28;20235;-79
2024/01/20 00:44:46;;;;;;;10.93;8.07;;;-4.30;99.90;;;;;;5070858;28;20553;-79
2024/01/20 00:47:13;;;;;;;8.82;6.53;;;-4.40;99.90;;;;;;5057809;28;20229;-80
2024/01/20 00:49:42;;;;;;;13.52;6.15;;;-4.30;99.90;;;;;;5068221;28;20204;-79
2024/01/20 00:52:09;;;;;;;11.10;5.60;;;-4.40;99.90;;;;;;5052956;28;20210;-81
2024/01/20 00:54:36;;;;;;;13.77;6.30;;;-4.40;99.90;;;;;;5069232;28;20232;-80
2024/01/20 00:57:03;;;;;;;13.65;7.45;;;-4.40;99.90;;;;;;5059116;28;20210;-79
2024/01/20 00:59:30;;;;;;;11.77;6.50;;;-4.30;99.90;;;;;;5056545;28;20204;-80
2024/01/20 01:01:57;;;;;;;10.07;6.35;;;-4.20;99.90;;;;;;5060801;28;20256;-79
2024/01/20 01:04:24;;;;;;;10.27;6.30;;;-4.20;99.90;;;;;;5065244;28;20261;-79
2024/01/20 01:06:52;;;;;;;9.98;6.07;;;-4.20;99.90;;;;;;5061934;28;20192;-80
2024/01/20 01:09:20;;;;;;;12.25;7.03;;;-4.20;99.90;;;;;;5058375;28;20202;-79
2024/01/20 01:11:47;;;;;;;14.52;6.43;;;-4.10;99.90;;;;;;5049193;28;20227;-83
2024/01/20 01:14:14;;;;;;;8.38;4.97;;;-4.10;99.90;;;;;;5065367;28;20231;-79
2024/01/20 01:16:41;;;;;;;6.47;5.30;;;-4.00;99.90;;;;;;5066697;28;20268;-77
2024/01/20 01:19:08;;;;;;;9.52;6.20;;;-4.10;99.90;;;;;;5059098;28;20208;-79
2024/01/20 01:21:35;;;;;;;13.25;7.78;;;-4.10;99.90;;;;;;5066000;28;20209;-78
2024/01/20 01:24:03;;;;;;;9.15;5.65;;;-4.10;99.90;;;;;;5064177;28;20663;-78
2024/01/20 01:26:30;;;;;;;8.05;6.25;;;-4.00;99.90;;;;;;5053711;28;20690;-81
2024/01/20 01:28:57;;;;;;;8.85;5.70;;;-4.00;99.90;;;;;;5068099;28;20199;-79
2024/01/20 01:31:24;;;;;;;9.45;6.70;;;-4.00;99.90;;;;;;5061357;28;20199;-78
2024/01/20 01:33:51;;;;;;;10.68;6.57;;;-4.00;99.90;;;;;;5054401;28;20602;-81
2024/01/20 01:36:18;;;;;;;7.95;5.65;;;-4.00;99.90;;;;;;5059552;28;20220;-78
2024/01/20 01:38:45;;;;;;;7.30;5.55;;;-4.10;99.90;;;;;;5063607;28;20205;-79
2024/01/20 01:41:14;;;;;;;7.47;5.90;;;-4.10;99.90;;;;;;5051025;28;20268;-78
2024/01/20 01:43:41;;;;;;;7.47;5.70;;;-4.20;99.90;;;;;;5064182;28;20204;-78
2024/01/20 01:46:08;;;;;;;11.40;6.30;;;-4.10;99.90;;;;;;5058720;28;20702;-80
2024/01/20 01:48:35;;;;;;;6.90;5.72;;;-4.10;99.90;;;;;;5061592;28;20248;-80
2024/01/20 01:51:04;;;;;;;9.15;4.60;;;-4.20;99.90;;;;;;5056722;28;20265;-78
2024/01/20 01:53:33;;;;;;;11.05;5.10;;;-4.20;99.90;;;;;;5054654;28;20278;-78
2024/01/20 01:56:01;;;;;;;10.75;6.22;;;-4.20;99.90;;;;;;5047177;28;20678;-78
2024/01/20 01:58:30;;;;;;;9.00;5.60;;;-4.20;99.90;;;;;;5057981;28;20201;-78
2024/01/20 02:00:57;;;;;;;6.90;5.55;;;-4.20;99.90;;;;;;5061674;28;20261;-78
2024/01/20 02:03:24;;;;;;;7.35;5.30;;;-4.20;99.90;;;;;;5065737;28;20216;-78
2024/01/20 02:05:51;;;;;;;10.00;6.68;;;-4.20;99.90;;;;;;5064503;28;20200;-79
2024/01/20 02:08:18;;;;;;;8.10;5.60;;;-4.30;99.90;;;;;;5058257;28;20204;-79
2024/01/20 02:10:47;;;;;;;7.60;5.72;;;-4.40;99.90;;;;;;5048492;28;20225;-79
2024/01/20 02:13:15;;;;;;;10.48;6.32;;;-4.50;99.90;;;;;;5054354;28;20232;-79
2024/01/20 02:15:44;;;;;;;7.45;5.10;;;-4.50;99.90;;;;;;5053004;28;20226;-78
2024/01/20 02:18:11;;;;;;;10.98;5.75;;;-4.50;99.90;;;;;;5056923;28;20201;-79
2024/01/20 02:20:38;;;;;;;7.93;5.93;;;-4.50;99.90;;;;;;5062293;28;20624;-79
2024/01/20 02:23:07;;;;;;;8.75;5.80;;;-4.50;99.90;;;;;;5062127;28;20899;-78
2024/01/20 02:25:34;;;;;;;6.35;4.20;;;-4.60;99.90;;;;;;5058133;28;20208;-78
2024/01/20 02:28:00;;;;;;;10.15;5.72;;;-4.70;99.90;;;;;;5075233;28;20704;-78
2024/01/20 02:30:27;;;;;;;8.13;6.43;;;-4.80;99.90;;;;;;5055741;28;20194;-80
2024/01/20 02:32:54;;;;;;;6.80;4.40;;;-4.80;99.90;;;;;;5063491;28;20249;-77
2024/01/20 02:35:21;;;;;;;6.38;4.38;;;-4.80;99.90;;;;;;5065459;28;20252;-79
2024/01/20 02:37:48;;;;;;;7.80;6.15;;;-4.90;99.90;;;;;;5057845;28;20279;-79
2024/01/20 02:40:17;;;;;;;8.70;4.43;;;-4.90;99.90;;;;;;5048191;28;20262;-82
2024/01/20 02:42:44;;;;;;;8.43;5.00;;;-4.90;99.90;;;;;;5060087;28;21318;-77
2024/01/20 02:45:11;;;;;;;8.45;5.80;;;-5.00;99.90;;;;;;5048883;28;20276;-77
2024/01/20 02:47:38;;;;;;;7.97;5.72;;;-5.00;99.90;;;;;;5059432;28;20195;-77
2024/01/20 02:50:06;;;;;;;9.80;5.70;;;-5.00;99.90;;;;;;5065065;28;20197;-79
2024/01/20 02:52:33;;;;;;;7.55;4.35;;;-5.00;99.90;;;;;;5062207;28;20228;-77
2024/01/20 02:55:00;;;;;;;7.70;5.85;;;-5.00;99.90;;;;;;5078108;28;20229;-80
2024/01/20 02:57:28;;;;;;;8.45;4.45;;;-5.00;99.90;;;;;;5069785;28;20266;-77
2024/01/20 02:59:55;;;;;;;9.13;6.18;;;-5.10;99.90;;;;;;5058906;28;20196;-77
2024/01/20 03:02:23;;;;;;;8.73;4.63;;;-5.00;99.90;;;;;;5061484;28;20197;-78
2024/01/20 03:04:50;;;;;;;7.47;4.93;;;-5.00;99.90;;;;;;5065680;28;20195;-79
2024/01/20 03:07:17;;;;;;;9.77;5.05;;;-5.00;99.90;;;;;;5065635;28;20236;-78
2024/01/20 03:09:44;;;;;;;6.93;4.15;;;-5.00;99.90;;;;;;5064658;28;20223;-78
2024/01/20 03:12:11;;;;;;;8.82;5.85;;;-5.00;99.90;;;;;;5065568;28;20205;-78
2024/01/20 03:14:40;;;;;;;8.48;5.93;;;-5.00;99.90;;;;;;5060389;28;20195;-78
2024/01/20 03:17:07;;;;;;;7.68;5.47;;;-5.00;99.90;;;;;;5059987;28;20195;-78
2024/01/20 03:19:34;;;;;;;10.38;5.05;;;-5.10;99.90;;;;;;5056748;28;20213;-79
2024/01/20 03:22:00;;;;;;;9.82;5.20;;;-5.10;99.90;;;;;;5064532;28;20201;-78
2024/01/20 03:24:28;;;;;;;8.85;4.75;;;-5.20;99.90;;;;;;5067706;28;20255;-78
2024/01/20 03:26:56;;;;;;;6.57;5.03;;;-5.30;99.90;;;;;;5063640;28;20232;-80
2024/01/20 03:29:23;;;;;;;8.27;4.05;;;-5.30;99.90;;;;;;5058408;28;20206;-80
2024/01/20 03:31:51;;;;;;;9.48;5.07;;;-5.30;99.90;;;;;;5067989;28;20200;-79
2024/01/20 03:34:18;;;;;;;10.88;6.13;;;-5.30;99.90;;;;;;5067629;28;20660;-83
2024/01/20 03:36:46;;;;;;;7.05;3.78;;;-5.20;99.90;;;;;;5068709;28;20263;-81
2024/01/20 03:39:12;;;;;;;7.28;5.57;;;-5.20;99.90;;;;;;5072360;28;20205;-78
2024/01/20 03:41:39;;;;;;;7.57;5.35;;;-5.20;99.90;;;;;;5082626;28;20189;-78
2024/01/20 03:44:06;;;;;;;11.25;5.35;;;-5.30;99.90;;;;;;5074033;28;20196;-78
2024/01/20 03:46:35;;;;;;;6.53;3.92;;;-5.20;99.90;;;;;;5056503;28;20308;-78
2024/01/20 03:49:03;;;;;;;10.55;5.75;;;-5.20;99.90;;;;;;5065779;28;20199;-78
2024/01/20 03:51:30;;;;;;;4.68;3.45;;;-5.30;99.90;;;;;;5063292;28;20252;-77
2024/01/20 03:53:57;;;;;;;9.00;5.80;;;-5.30;99.90;;;;;;5068048;28;20281;-78
2024/01/20 03:56:24;;;;;;;6.88;4.70;;;-5.20;99.90;;;;;;5062088;28;20243;-80
2024/01/20 03:58:51;;;;;;;5.63;5.07;;;-5.20;99.90;;;;;;5068590;28;20645;-78
2024/01/20 04:01:18;;;;;;;9.75;4.13;;;-5.20;99.90;;;;;;5061987;28;20204;-78
2024/01/20 04:03:45;;;;;;;8.90;4.32;;;-5.30;99.90;;;;;;5067350;28;20208;-79
2024/01/20 04:06:13;;;;;;;5.95;5.15;;;-5.40;99.90;;;;;;5060932;28;20201;-79
2024/01/20 04:08:40;;;;;;;4.55;3.00;;;-5.50;99.90;;;;;;5064696;28;20264;-79
2024/01/20 04:11:07;;;;;;;7.40;4.72;;;-5.60;99.90;;;;;;5068877;28;20819;-79
2024/01/20 04:13:34;;;;;;;7.75;3.60;;;-5.70;99.90;;;;;;5053472;28;20257;-79
2024/01/20 04:16:01;;;;;;;6.35;4.32;;;-5.70;99.90;;;;;;5059728;28;20225;-80
2024/01/20 04:18:28;;;;;;;5.85;3.53;;;-5.70;99.90;;;;;;5049406;28;20203;-79
2024/01/20 04:20:55;;;;;;;4.75;3.42;;;-5.70;99.90;;;;;;5060856;28;20544;-79
2024/01/20 04:23:24;;;;;;;5.95;3.25;;;-5.70;99.90;;;;;;5055339;28;20653;-79
2024/01/20 04:25:51;;;;;;;4.10;2.72;;;-5.80;99.90;;;;;;5059649;28;20563;-79
2024/01/20 04:28:18;;;;;;;7.25;3.10;;;-5.70;99.90;;;;;;5059760;28;20283;-79
2024/01/20 04:30:45;;;;;;;3.95;2.50;;;-5.70;99.90;;;;;;5060123;28;20190;-81
2024/01/20 04:33:12;;;;;;;8.35;4.07;;;-5.60;99.90;;;;;;5055174;28;20206;-78
2024/01/20 04:35:39;;;;;;;2.83;2.63;;;-5.60;99.90;;;;;;5050125;28;20224;-81
2024/01/20 04:38:06;;;;;;;3.80;3.50;;;-5.70;99.90;;;;;;5051995;28;20210;-81
2024/01/20 04:40:35;;;;;;;5.47;4.25;;;-5.60;99.90;;;;;;5058521;28;20607;-80
2024/01/20 04:43:02;;;;;;;5.72;4.03;;;-5.80;99.90;;;;;;5059946;28;20202;-82
2024/01/20 04:45:29;;;;;;;5.93;3.25;;;-5.80;99.90;;;;;;5050554;28;20198;-79
2024/01/20 04:47:55;;;;;;;5.60;3.80;;;-6.00;99.90;;;;;;5050514;28;20732;-80
2024/01/20 04:50:23;;;;;;;3.63;2.35;;;-6.10;99.90;;;;;;5063115;28;20980;-79
2024/01/20 04:52:50;;;;;;;6.97;3.50;;;-6.20;99.90;;;;;;5054944;28;20207;-79
2024/01/20 04:55:16;;;;;;;3.80;3.05;;;-6.20;99.90;;;;;;5068248;28;20198;-80
2024/01/20 04:57:45;;;;;;;4.60;2.88;;;-6.20;99.90;;;;;;5068242;28;20762;-80
2024/01/20 05:00:12;;;;;;;3.67;2.85;;;-6.20;99.90;;;;;;5059806;28;20726;-80
2024/01/20 05:02:39;;;;;;;5.20;2.25;;;-6.20;99.90;;;;;;5067406;28;20254;-79
2024/01/20 05:05:07;;;;;;;6.00;3.45;;;-6.20;99.90;;;;;;5068389;28;20794;-81
2024/01/20 05:07:34;;;;;;;7.07;2.60;;;-6.30;99.90;;;;;;5066515;28;20225;-79
2024/01/20 05:10:01;;;;;;;4.80;2.85;;;-6.30;99.90;;;;;;5066813;28;20257;-80
2024/01/20 05:12:28;;;;;;;4.45;2.60;;;-6.40;99.90;;;;;;5068273;28;20259;-80
2024/01/20 05:14:57;;;;;;;4.00;2.00;;;-6.30;99.90;;;;;;5062838;28;20252;-80
2024/01/20 05:17:24;;;;;;;6.65;2.40;;;-6.20;99.90;;;;;;5068222;28;20233;-79
2024/01/20 05:19:51;;;;;;;3.53;2.55;;;-6.10;99.90;;;;;;5065638;28;20289;-79
2024/01/20 05:22:18;;;;;;;4.72;3.65;;;-6.00;99.90;;;;;;5067958;28;20206;-78
2024/01/20 05:24:46;;;;;;;7.50;3.53;;;-5.90;99.90;;;;;;5051873;28;20287;-76
2024/01/20 05:27:13;;;;;;;7.15;2.88;;;-5.90;99.90;;;;;;5066465;28;20239;-78
2024/01/20 05:29:40;;;;;;;3.78;2.60;;;-5.80;99.90;;;;;;5066510;28;20256;-78
2024/01/20 05:32:09;;;;;;;4.57;2.08;;;-5.80;99.90;;;;;;5064122;28;20194;-78
2024/01/20 05:34:36;;;;;;;6.07;3.72;;;-5.80;99.90;;;;;;5068016;28;20204;-78
2024/01/20 05:37:03;;;;;;;3.08;1.88;;;-5.60;99.90;;;;;;5064639;28;20230;-77
2024/01/20 05:39:30;;;;;;;5.00;3.40;;;-5.60;99.90;;;;;;5066634;28;20203;-78
2024/01/20 05:41:57;;;;;;;3.10;1.92;;;-5.60;99.90;;;;;;5066673;28;20201;-78
2024/01/20 05:44:24;;;;;;;6.13;2.83;;;-5.60;99.90;;;;;;5066657;28;20945;-77
2024/01/20 05:46:51;;;;;;;5.60;2.97;;;-5.60;99.90;;;;;;5064348;28;20209;-78
2024/01/20 05:49:19;;;;;;;6.03;3.67;;;-5.60;99.90;;;;;;5062417;28;20259;-81
2024/01/20 05:51:46;;;;;;;3.83;1.98;;;-5.60;99.90;;;;;;5056589;28;20291;-75
2024/01/20 05:54:13;;;;;;;4.35;3.38;;;-5.60;99.90;;;;;;5061219;28;20210;-90
2024/01/20 05:56:40;;;;;;;2.88;2.08;;;-5.50;99.90;;;;;;5065832;28;20753;-79
2024/01/20 05:59:07;;;;;;;2.83;1.30;;;-5.50;99.90;;;;;;5066962;28;20202;-81
2024/01/20 06:01:34;;;;;;;2.65;2.10;;;-5.50;99.90;;;;;;5066168;28;20913;-81
2024/01/20 06:04:01;;;;;;;4.82;2.10;;;-5.50;99.90;;;;;;5059097;28;20198;-79
2024/01/20 06:06:29;;;;;;;4.18;2.75;;;-5.50;99.90;;;;;;5065646;28;20244;-79
2024/01/20 06:08:56;;;;;;;4.10;2.15;;;-5.60;99.90;;;;;;5064138;28;20204;-79
2024/01/20 06:11:24;;;;;;;2.05;1.55;;;-5.60;99.90;;;;;;5070071;28;20224;-79
2024/01/20 06:13:51;;;;;;;2.85;1.98;;;-5.60;99.90;;;;;;5075484;28;20927;-79
2024/01/20 06:16:18;;;;;;;2.17;1.95;;;-5.70;99.90;;;;;;5061389;28;20217;-78
2024/01/20 06:18:45;;;;;;;2.55;2.15;;;-5.80;99.90;;;;;;5066886;28;20201;-79
2024/01/20 06:21:19;;;;;;;2.65;1.45;;;-5.80;99.90;;;;;;5064505;28;20553;-78
2024/01/20 06:23:48;;;;;;;2.15;1.52;;;-6.00;99.90;;;;;;5068662;28;20656;-79
2024/01/20 06:26:15;;;;;;;3.42;1.60;;;-6.00;99.90;;;;;;5070384;28;20750;-79
2024/01/20 06:28:42;;;;;;;3.65;2.00;;;-6.00;99.90;;;;;;5064909;28;20757;-81
2024/01/20 06:31:09;;;;;;;2.45;2.25;;;-6.00;99.90;;;;;;5065090;28;20189;-79
2024/01/20 06:33:37;;;;;;;3.60;1.80;;;-5.90;99.90;;;;;;5064220;28;20254;-79
2024/01/20 06:36:05;;;;;;;2.92;1.80;;;-6.00;99.90;;;;;;5066320;28;20248;-78
2024/01/20 06:38:32;;;;;;;8.55;1.60;;;-6.00;99.90;;;;;;5059781;28;20193;-79
2024/01/20 06:41:00;;;;;;;4.00;1.92;;;-6.10;99.90;;;;;;5060154;28;20229;-78
2024/01/20 06:43:27;;;;;;;3.38;1.60;;;-6.10;99.90;;;;;;5058715;28;20201;-80
2024/01/20 06:45:54;;;;;;;5.00;1.92;;;-6.10;99.90;;;;;;5057336;28;20214;-78
2024/01/20 06:48:21;;;;;;;2.50;1.48;;;-6.00;99.90;;;;;;5052086;28;20280;-78
2024/01/20 06:50:48;;;;;;;2.97;2.00;;;-6.00;99.90;;;;;;5061662;28;20806;-78
2024/01/20 06:53:15;;;;;;;3.20;1.73;;;-6.00;99.90;;;;;;5067082;28;20214;-79
2024/01/20 06:55:42;;;;;;;6.72;2.28;;;-5.90;99.90;;;;;;5072652;28;20203;-78
2024/01/20 06:58:11;;;;;;;2.88;2.50;;;-6.10;99.90;;;;;;5064793;28;21033;-78
2024/01/20 07:00:38;;;;;;;3.50;1.85;;;-6.10;99.90;;;;;;5065180;28;20194;-78
2024/01/20 07:03:05;;;;;;;2.45;2.10;;;-6.20;99.90;;;;;;5062064;28;20227;-79
2024/01/20 07:05:32;;;;;;;4.55;1.98;;;-6.30;99.90;;;;;;5062974;28;20771;-78
2024/01/20 07:07:59;;;;;;;2.72;1.73;;;-6.40;99.90;;;;;;5062348;28;20239;-78
2024/01/20 07:10:26;;;;;;;4.80;2.58;;;-6.50;99.90;;;;;;5064540;28;20199;-80
2024/01/20 07:12:53;;;;;;;4.22;3.33;;;-6.40;99.90;;;;;;5055076;28;20197;-77
2024/01/20 07:15:21;;;;;;;5.85;1.83;;;-6.40;99.90;;;;;;5051320;28;20649;-78
2024/01/20 07:17:48;;;;;;;3.40;1.80;;;-6.40;99.90;;;;;;5058259;28;20267;-78
2024/01/20 07:20:15;;;;;;;2.55;1.55;;;-6.50;99.90;;;;;;5047344;28;20277;-81
2024/01/20 07:22:44;;;;;;;4.70;2.28;;;-6.50;99.90;;;;;;5060904;28;20214;-79
2024/01/20 07:25:11;;;;;;;2.63;1.92;;;-6.50;99.90;;;;;;5053097;28;20559;-79
2024/01/20 07:27:38;;;;;;;4.05;2.58;;;-6.50;99.90;;;;;;5062629;28;20235;-78
2024/01/20 07:30:06;;;;;;;2.55;1.70;;;-6.30;99.90;;;;;;5056962;28;20191;-78
2024/01/20 07:32:35;;;;;;;2.65;1.98;;;-6.20;99.90;;;;;;5056607;28;20202;-78
2024/01/20 07:35:03;;;;;;;13.70;6.22;;;-6.30;99.90;;;;;;5053349;28;20329;-77
2024/01/20 07:37:29;;;;;;;8.85;4.15;;;-6.40;99.90;;;;;;5057994;28;20695;-77
2024/01/20 07:39:57;;;;;;;3.65;2.60;;;-6.40;99.90;;;;;;5061122;28;20244;-79
2024/01/20 07:42:23;;;;;;;3.65;2.05;;;-6.30;99.90;;;;;;5064286;28;20831;-78
2024/01/20 07:44:50;;;;;;;2.72;1.77;;;-6.30;99.90;;;;;;5062189;28;20197;-78
2024/01/20 07:47:17;;;;;;;3.95;1.48;;;-6.20;99.90;;;;;;5061850;28;20209;-78
2024/01/20 07:49:46;;;;;;;6.60;2.58;;;-6.20;99.90;;;;;;5058043;28;20295;-78
2024/01/20 07:52:13;;;;;;;13.98;3.72;;;-6.20;99.90;;;;;;5056714;28;20199;-77
2024/01/20 07:54:40;;;;;;;5.80;1.88;;;-6.10;99.90;;;;;;5063343;28;20265;-79
2024/01/20 07:57:06;;;;;;;2.60;1.35;;;-6.00;99.90;;;;;;5063067;28;20677;-79
2024/01/20 07:59:34;;;;;;;4.57;2.25;;;-5.90;99.90;;;;;;5056104;28;20200;-78
2024/01/20 08:02:01;;;;;;;6.85;3.13;;;-5.70;99.90;;;;;;5060110;28;20200;-77
2024/01/20 08:04:27;;;;;;;13.52;6.45;;;-5.50;99.90;;;;;;5060891;28;20278;-78
2024/01/20 08:06:56;;;;;;;7.40;4.47;;;-5.30;99.90;;;;;;5055362;28;20263;-78
2024/01/20 08:09:23;;;;;;;13.07;6.85;;;-5.20;99.90;;;;;;5059394;28;20250;-77
2024/01/20 08:11:50;;;;;;;17.27;9.75;;;-5.00;99.90;;;;;;5063027;28;20194;-76
2024/01/20 08:14:17;;;;;;;4.80;2.40;;;-4.90;99.90;;;;;;5060203;28;20285;-79
2024/01/20 08:16:44;;;;;;;2.63;1.40;;;-4.90;99.90;;;;;;5062045;28;20313;-77
2024/01/20 08:19:11;;;;;;;2.38;1.88;;;-4.80;99.90;;;;;;5060593;28;20298;-78
2024/01/20 08:21:38;;;;;;;2.45;2.25;;;-4.90;99.90;;;;;;5057976;28;20429;-78
2024/01/20 08:24:07;;;;;;;5.45;4.60;;;-4.80;99.90;;;;;;5071751;28;20201;-78
2024/01/20 08:26:34;;;;;;;13.80;7.78;;;-4.70;99.90;;;;;;5064939;28;20236;-78
2024/01/20 08:29:01;;;;;;;5.93;3.92;;;-4.60;99.90;;;;;;5059526;28;20253;-79
2024/01/20 08:31:28;;;;;;;6.63;1.80;;;-4.50;99.90;;;;;;5065892;28;20705;-78
2024/01/20 08:33:55;;;;;;;6.47;4.60;;;-4.50;99.90;;;;;;5066584;28;20235;-80
2024/01/20 08:36:22;;;;;;;8.65;4.70;;;-4.40;99.90;;;;;;5060045;28;20265;-79
2024/01/20 08:38:49;;;;;;;7.03;3.47;;;-4.30;99.90;;;;;;5054885;28;20217;-77
2024/01/20 08:41:17;;;;;;;6.40;3.55;;;-4.20;99.90;;;;;;5061887;28;20205;-76
2024/01/20 08:43:45;;;;;;;5.88;2.85;;;-4.10;99.90;;;;;;5060149;28;20278;-77
2024/01/20 08:46:12;;;;;;;9.55;4.65;;;-4.00;99.90;;;;;;5063295;28;20658;-77
2024/01/20 08:48:39;;;;;;;25.67;10.85;;;-3.90;99.90;;;;;;5058346;28;20314;-79
2024/01/20 08:51:06;;;;;;;6.13;5.63;;;-3.80;99.90;;;;;;5065293;28;21118;-77
2024/01/20 08:53:33;;;;;;;6.70;2.90;;;-3.70;99.90;;;;;;5068565;28;20655;-77
2024/01/20 08:56:01;;;;;;;9.40;5.60;;;-3.70;99.90;;;;;;5063340;28;20195;-78
2024/01/20 08:58:29;;;;;;;4.90;2.10;;;-3.60;99.90;;;;;;5060759;28;20258;-78
2024/01/20 09:00:56;;;;;;;2.33;1.67;;;-3.50;99.90;;;;;;5054913;28;20699;-76
2024/01/20 09:03:23;;;;;;;2.83;1.52;;;-3.50;99.90;;;;;;5057711;28;20231;-77
2024/01/20 09:05:50;;;;;;;3.20;2.20;;;-3.50;99.90;;;;;;5060607;28;20245;-77
2024/01/20 09:08:17;;;;;;;3.33;3.03;;;-3.40;99.90;;;;;;5049048;28;20772;-78
2024/01/20 09:10:44;;;;;;;8.00;2.45;;;-3.30;99.90;;;;;;5057911;28;20255;-77
2024/01/20 09:13:11;;;;;;;4.72;2.08;;;-3.30;99.90;;;;;;5060362;28;20245;-77
2024/01/20 09:15:40;;;;;;;4.47;2.45;;;-3.40;99.90;;;;;;5060422;28;20207;-77
2024/01/20 09:18:07;;;;;;;3.95;2.42;;;-3.30;99.90;;;;;;5063835;28;20215;-79
2024/01/20 09:20:34;;;;;;;3.47;2.90;;;-3.20;99.90;;;;;;5060372;28;20253;-78
2024/01/20 09:23:01;;;;;;;3.60;2.88;;;-3.00;99.90;;;;;;5068691;28;20188;-77
2024/01/20 09:25:28;;;;;;;8.27;2.45;;;-3.00;99.90;;;;;;5072771;28;20764;-78
2024/01/20 09:27:55;;;;;;;5.22;3.15;;;-3.10;99.90;;;;;;5064805;28;20235;-77
2024/01/20 09:30:22;;;;;;;2.83;2.55;;;-3.20;99.90;;;;;;5063226;28;20347;-78
2024/01/20 09:32:51;;;;;;;4.38;3.60;;;-3.10;99.90;;;;;;5055819;28;20284;-84
2024/01/20 09:35:18;;;;;;;6.70;2.42;;;-3.10;99.90;;;;;;5067620;28;20233;-77
2024/01/20 09:37:44;;;;;;;4.57;4.10;;;-3.00;99.90;;;;;;5059182;28;20285;-78
2024/01/20 09:40:12;;;;;;;2.50;2.22;;;-2.90;99.90;;;;;;5060843;28;20237;-79
2024/01/20 09:42:40;;;;;;;5.90;3.97;;;-2.80;99.90;;;;;;5056220;28;20212;-78
2024/01/20 09:45:08;;;;;;;4.63;2.88;;;-2.70;99.90;;;;;;5060431;28;20280;-77
2024/01/20 09:47:35;;;;;;;4.50;2.78;;;-2.70;99.90;;;;;;5055866;28;20201;-77
2024/01/20 09:50:05;;;;;;;6.03;3.63;;;-2.60;99.90;;;;;;5055971;28;20288;-78
2024/01/20 09:52:32;;;;;;;3.85;3.53;;;-2.60;99.90;;;;;;5053115;28;20201;-77
2024/01/20 09:55:17;;;;;;;5.25;3.17;;;-2.50;99.90;;;;;;5063305;28;20727;-77
2024/01/20 09:57:46;;;;;;;6.28;3.67;;;-2.40;99.90;;;;;;5060629;28;20222;-76
2024/01/20 10:00:16;;;;;;;4.57;3.35;;;-2.30;99.90;;;;;;5058220;28;20204;-77
2024/01/20 10:02:45;;;;;;;4.88;2.78;;;-2.20;99.90;;;;;;5054774;28;20233;-79
2024/01/20 10:05:14;;;;;;;4.68;3.70;;;-2.10;99.90;;;;;;5063164;28;20629;-77
2024/01/20 10:07:41;;;;;;;5.55;3.38;;;-2.10;99.90;;;;;;5051999;28;20633;-78
2024/01/20 10:10:10;;;;;;;3.47;2.40;;;-2.10;99.90;;;;;;5059222;28;20486;-77
2024/01/20 10:12:37;;;;;;;6.07;3.67;;;-2.10;99.90;;;;;;5067008;28;20869;-80
2024/01/20 10:15:05;;;;;;;7.20;2.75;;;-2.00;99.90;;;;;;5062691;28;20190;-78
2024/01/20 10:17:37;;;;;;;3.78;3.47;;;-1.90;99.90;;;;;;5065215;28;20233;-78
2024/01/20 10:20:06;;;;;;;2.75;1.98;;;-1.80;99.90;;;;;;5058995;28;20340;-78
2024/01/20 10:22:34;;;;;;;4.93;2.70;;;-1.70;99.90;;;;;;5067638;28;20272;-78
2024/01/20 10:25:01;;;;;;;3.88;2.58;;;-1.70;99.90;;;;;;5061155;28;20225;-77
2024/01/20 10:27:29;;;;;;;3.97;2.75;;;-1.60;99.90;;;;;;5051412;28;20230;-77
2024/01/20 10:29:56;;;;;;;5.80;1.95;;;-1.60;99.90;;;;;;5060500;28;20248;-79
2024/01/20 10:32:23;;;;;;;5.25;2.72;;;-1.60;99.90;;;;;;5048901;28;20202;-77
2024/01/20 10:34:52;;;;;;;7.30;2.95;;;-1.50;99.90;;;;;;5059662;28;20193;-78
2024/01/20 10:37:22;;;;;;;6.50;3.50;;;-1.50;99.90;;;;;;5061514;28;20545;-77
2024/01/20 10:39:53;;;;;;;4.90;2.72;;;-1.50;99.90;;;;;;5060968;28;20305;-79
2024/01/20 10:42:22;;;;;;;4.63;2.95;;;-1.50;99.90;;;;;;5060412;28;20562;-79
2024/01/20 10:45:01;;;;;;;3.25;2.13;;;-1.40;99.90;;;;;;5062032;28;20279;-77
2024/01/20 10:47:37;;;;;;;5.40;2.85;;;-1.40;99.90;;;;;;5059192;28;20189;-77
2024/01/20 10:50:05;;;;;;;5.97;3.03;;;-1.30;99.90;;;;;;5058844;28;20185;-78
2024/01/20 10:52:33;;;;;;;2.85;2.63;;;-1.30;99.90;;;;;;5056436;28;20250;-78
2024/01/20 10:55:03;;;;;;;2.17;2.05;;;-1.20;99.90;;;;;;5066416;28;20213;-77
2024/01/20 10:57:30;;;;;;;3.40;2.25;;;-1.10;99.90;;;;;;5063238;28;20269;-77
2024/01/20 10:59:59;;;;;;;3.70;1.90;;;-1.10;99.90;;;;;;5063303;28;20251;-77
2024/01/20 11:02:27;;;;;;;4.47;2.25;;;-1.10;99.90;;;;;;5062959;28;20227;-79
2024/01/20 11:04:54;;;;;;;3.67;2.35;;;-1.10;99.90;;;;;;5062403;28;20662;-77
2024/01/20 11:07:22;;;;;;;3.22;2.40;;;-1.10;99.90;;;;;;5062156;28;20198;-78
2024/01/20 11:09:56;;;;;;;3.63;1.90;;;-1.00;99.90;;;;;;5062421;28;20381;-78
2024/01/20 11:12:26;;;;;;;4.35;2.97;;;-1.10;99.70;;;;;;5057499;28;20274;-77
2024/01/20 11:14:54;;;;;;;3.60;2.30;;;-1.10;99.90;;;;;;5061950;28;20202;-78
2024/01/20 11:17:21;;;;;;;1.73;1.47;;;-1.00;99.90;;;;;;5063553;28;20265;-78
2024/01/20 11:19:49;;;;;;;2.97;2.65;;;-0.90;99.90;;;;;;5048114;28;20457;-79
2024/01/20 11:22:32;;;;;;;1.43;1.10;;;-0.80;99.90;;;;;;5057960;28;20613;-77
2024/01/20 11:25:04;;;;;;;1.63;1.40;;;-0.80;99.20;;;;;;5066585;28;20468;-78
2024/01/20 11:27:43;;;;;;;2.95;1.90;;;-0.90;97.80;;;;;;5061785;28;20578;-78
2024/01/20 11:30:11;;;;;;;1.87;1.10;;;-0.90;98.90;;;;;;5061366;28;20197;-78
2024/01/20 11:32:38;;;;;;;4.10;2.30;;;-0.80;99.30;;;;;;5055416;28;20461;-78
2024/01/20 11:35:06;;;;;;;2.50;1.57;;;-0.70;98.70;;;;;;5056038;28;20464;-80
2024/01/20 11:37:34;;;;;;;2.07;1.40;;;-0.70;99.10;;;;;;5064020;28;20457;-80
2024/01/20 11:40:05;;;;;;;2.30;1.90;;;-0.50;99.10;;;;;;5055272;28;20447;-78
2024/01/20 11:42:34;;;;;;;2.20;2.00;;;-0.70;98.30;;;;;;5058857;28;20517;-77
2024/01/20 11:45:02;;;;;;;3.00;1.77;;;-0.70;98.60;;;;;;5061186;28;20463;-79
2024/01/20 11:47:29;;;;;;;8.43;1.80;;;-0.60;98.50;;;;;;5055664;28;20463;-78
2024/01/20 11:49:57;;;;;;;2.85;2.00;;;-0.60;97.70;;;;;;5046206;28;20198;-78
2024/01/20 11:52:25;;;;;;;2.20;1.70;;;-0.50;97.70;;;;;;5052146;28;20199;-78
2024/01/20 11:54:53;;;;;;;1.98;1.70;;;-0.40;97.80;;;;;;5065916;28;20468;-78
2024/01/20 11:57:20;;;;;;;2.77;2.07;;;-0.40;98.10;;;;;;5058457;28;20276;-79
2024/01/20 11:59:49;;;;;;;1.07;1.07;;;-0.30;98.00;;;;;;5056702;28;20564;-78
2024/01/20 12:02:17;;;;;;;2.57;1.00;;;-0.30;97.30;;;;;;5054121;28;20451;-77
2024/01/20 12:04:44;;;;;;;1.73;1.53;;;-0.30;97.90;;;;;;5054949;28;20533;-78
2024/01/20 12:07:11;;;;;;;4.13;2.30;;;-0.20;98.90;;;;;;5055654;28;20457;-80
2024/01/20 12:09:38;;;;;;;1.13;1.10;;;-0.30;97.40;;;;;;5058383;28;20460;-78
2024/01/20 12:12:06;;;;;;;2.70;1.80;;;-0.30;97.50;;;;;;5052980;28;20470;-78
2024/01/20 12:14:34;;;;;;;3.37;1.50;;;-0.20;97.30;;;;;;5055072;28;20465;-80
2024/01/20 12:17:02;;;;;;;1.57;1.47;;;-0.30;97.30;;;;;;5067405;28;20509;-78
2024/01/20 12:19:31;;;;;;;2.60;1.20;;;-0.30;97.30;;;;;;5059249;28;20977;-78
2024/01/20 12:21:58;;;;;;;2.37;1.80;;;-0.30;96.40;;;;;;5062133;28;20514;-79
2024/01/20 12:24:25;;;;;;;2.53;1.70;;;-0.20;97.70;;;;;;5062223;28;21011;-78
2024/01/20 12:26:53;;;;;;;2.17;1.80;;;-0.20;98.00;;;;;;5056867;28;20508;-78
2024/01/20 12:29:20;;;;;;;2.20;1.67;;;-0.10;97.30;;;;;;5057521;28;20465;-77
2024/01/20 12:31:47;;;;;;;2.10;1.40;;;-0.20;97.00;;;;;;5071654;28;20458;-80
2024/01/20 12:34:16;;;;;;;4.00;2.30;;;-0.30;96.10;;;;;;5064128;28;21015;-77
2024/01/20 12:36:43;;;;;;;1.93;1.50;;;-0.30;96.40;;;;;;5061961;28;20525;-78
2024/01/20 12:39:10;;;;;;;2.73;1.87;;;-0.40;95.90;;;;;;5057831;28;20487;-78
2024/01/20 12:41:37;;;;;;;3.20;1.80;;;-0.30;96.80;;;;;;5076706;28;20654;-78
2024/01/20 12:44:04;;;;;;;1.60;1.27;;;-0.30;97.30;;;;;;5063007;28;20525;-78
2024/01/20 12:46:31;;;;;;;2.43;2.10;;;-0.50;95.90;;;;;;5070466;28;20451;-76